createdAt,value
2018-11-10T00:07:13.453Z,96964.66
2018-11-10T00:17:34.901Z,96962.27
2018-11-10T00:27:57.064Z,96973.05
2018-11-10T00:38:19.392Z,96992.08
2018-11-10T00:48:40.879Z,96990.02
2018-11-10T00:59:01.690Z,96988.27
2018-11-10T01:09:24.092Z,96994.72
2018-11-10T01:19:45.199Z,96978.09
2018-11-10T01:30:07.654Z,96970.17
2018-11-10T01:40:29.055Z,96967.27
2018-11-10T01:50:50.060Z,96956.41
2018-11-10T02:01:11.872Z,96941.17
2018-11-10T02:11:32.947Z,96921.32
2018-11-10T02:21:54.043Z,96930.15
2018-11-10T02:32:17.773Z,96908.35
2018-11-10T02:42:39.318Z,96891.95
2018-11-10T02:53:00.929Z,96887.11
2018-11-10T03:03:22.272Z,96865.92
2018-11-10T03:13:43.258Z,96866.08
2018-11-10T03:24:04.129Z,96861.59
2018-11-10T03:34:25.266Z,96853.76
2018-11-10T03:44:46.519Z,96866.36
2018-11-10T03:55:08.354Z,96855.14
2018-11-10T04:05:29.321Z,96858.20
2018-11-10T04:15:50.465Z,96856.71
2018-11-10T04:26:11.716Z,96852.52
2018-11-10T04:36:32.563Z,96841.20
2018-11-10T04:46:54.220Z,96853.82
2018-11-10T04:57:16.199Z,96848.02
2018-11-10T05:07:38.650Z,96857.03
2018-11-10T05:18:01.315Z,96851.84
2018-11-10T05:28:22.656Z,96843.34
2018-11-10T05:38:44.429Z,96842.67
2018-11-10T05:49:06.284Z,96844.58
2018-11-10T05:59:28.644Z,96845.98
2018-11-10T06:09:53.602Z,96853.98
2018-11-10T06:20:16.846Z,96865.28
2018-11-10T06:30:39.400Z,96871.62
2018-11-10T06:41:05.345Z,96863.05
2018-11-10T06:51:26.881Z,96863.75
2018-11-10T07:01:52.105Z,96876.02
2018-11-10T07:12:16.579Z,96878.21
2018-11-10T07:22:38.266Z,96882.44
2018-11-10T07:33:02.175Z,96890.06
2018-11-10T07:43:24.146Z,96891.16
2018-11-10T07:53:46.604Z,96882.52
2018-11-10T08:04:08.250Z,96878.44
2018-11-10T08:14:29.603Z,96870.77
2018-11-10T08:24:51.121Z,96871.95
2018-11-10T08:35:13.011Z,96882.42
2018-11-10T08:45:16.344Z,96871.78
2018-11-10T08:55:19.233Z,96882.76
2018-11-10T09:05:22.476Z,96882.76
2018-11-10T09:15:25.458Z,96882.42
2018-11-10T09:25:28.389Z,96889.77
2018-11-10T09:35:31.320Z,96876.92
2018-11-10T09:45:34.218Z,96871.55
2018-11-10T09:55:37.543Z,96866.59
2018-11-10T10:05:40.442Z,96856.81
2018-11-10T10:15:43.349Z,96848.58
2018-11-10T10:25:46.429Z,96846.85
2018-11-10T10:35:49.305Z,96842.09
2018-11-10T10:45:52.145Z,96827.97
2018-11-10T10:55:55.052Z,96816.30
2018-11-10T11:06:02.248Z,96806.97
2018-11-10T11:16:05.915Z,96803.21
2018-11-10T11:26:08.793Z,96799.23
2018-11-10T11:36:11.802Z,96791.28
2018-11-10T11:46:14.801Z,96792.64
2018-11-10T11:56:17.662Z,96780.17
2018-11-10T12:06:20.577Z,96777.80
2018-11-10T12:16:27.196Z,96788.92
2018-11-10T12:26:26.384Z,96775.64
2018-11-10T12:37:57.523Z,96765.64
2018-11-10T12:48:00.411Z,96773.60
2018-11-10T12:58:03.378Z,96768.58
2018-11-10T13:08:06.373Z,96761.45
2018-11-10T13:18:09.182Z,96755.15
2018-11-10T13:28:12.089Z,96748.73
2018-11-10T13:38:15.120Z,96737.52
2018-11-10T13:48:17.923Z,96732.70
2018-11-10T13:58:20.836Z,96724.23
2018-11-10T14:08:24.227Z,96725.42
2018-11-10T14:18:27.348Z,96733.76
2018-11-10T14:28:30.703Z,96725.90
2018-11-10T14:38:33.630Z,96724.87
2018-11-10T14:48:36.480Z,96734.61
2018-11-10T14:58:39.488Z,96729.77
2018-11-10T15:08:42.252Z,96734.30
2018-11-10T15:19:20.830Z,96746.12
2018-11-10T15:29:20.694Z,96740.67
2018-11-10T15:39:20.667Z,96746.41
2018-11-10T15:49:20.538Z,96746.41
2018-11-10T15:59:23.075Z,96760.09
2018-11-10T16:09:24.235Z,96757.86
2018-11-10T16:19:24.522Z,96768.01
2018-11-10T16:29:24.398Z,96759.80
2018-11-10T16:39:24.288Z,96766.19
2018-11-10T16:49:24.139Z,96769.48
2018-11-10T16:59:24.016Z,96767.67
2018-11-10T17:09:23.883Z,96779.92
2018-11-10T17:19:23.815Z,96774.06
2018-11-10T17:29:23.703Z,96769.63
2018-11-10T17:39:23.738Z,96763.75
2018-11-10T17:49:23.475Z,96758.18
2018-11-10T17:59:23.352Z,96760.80
2018-11-10T18:09:23.222Z,96763.09
2018-11-10T18:19:23.103Z,96759.16
2018-11-10T18:29:23.003Z,96762.78
2018-11-10T18:39:23.009Z,96755.91
2018-11-10T18:49:22.882Z,96764.58
2018-11-10T18:59:22.751Z,96773.86
2018-11-10T19:09:23.044Z,96771.59
2018-11-10T19:19:22.902Z,96770.45
2018-11-10T19:29:22.795Z,96768.67
2018-11-10T19:39:22.657Z,96772.09
2018-11-10T19:49:22.513Z,96765.39
2018-11-10T19:59:22.372Z,96765.20
2018-11-10T20:09:22.279Z,96767.66
2018-11-10T20:19:22.550Z,96772.42
2018-11-10T20:29:22.361Z,96775.84
2018-11-10T20:39:22.278Z,96768.16
2018-11-10T20:49:22.221Z,96759.02
2018-11-10T20:59:22.108Z,96755.10
2018-11-10T21:09:23.311Z,96751.64
2018-11-10T21:19:24.508Z,96748.84
2018-11-10T21:29:25.551Z,96748.86
2018-11-10T21:39:44.554Z,96741.38
2018-11-10T21:50:04.849Z,96747.41
2018-11-10T22:00:24.049Z,96746.41
2018-11-10T22:10:44.075Z,96732.83
2018-11-10T22:21:01.891Z,96735.31
2018-11-10T22:31:20.023Z,96733.65
2018-11-10T22:41:38.090Z,96723.89
2018-11-10T22:51:56.205Z,96721.26
2018-11-10T23:02:14.757Z,96723.36
2018-11-10T23:12:33.240Z,96721.23
2018-11-10T23:22:51.317Z,96719.91
2018-11-10T23:33:09.325Z,96734.97
2018-11-10T23:43:27.375Z,96746.86
2018-11-10T23:53:45.633Z,96757.55
